createdAt,value
2022-12-26T00:00:28.768Z,11.39
2022-12-26T00:02:55.579Z,11.33
2022-12-26T00:05:22.346Z,11.38
2022-12-26T00:07:49.263Z,11.33
2022-12-26T00:10:15.975Z,11.42
2022-12-26T00:12:42.790Z,11.33
2022-12-26T00:15:09.443Z,11.42
2022-12-26T00:17:36.154Z,11.38
2022-12-26T00:20:03.791Z,11.41
2022-12-26T00:22:30.471Z,11.32
2022-12-26T00:24:57.374Z,11.29
2022-12-26T00:27:24.143Z,11.33
2022-12-26T00:29:50.848Z,11.39
2022-12-26T00:32:17.721Z,11.34
2022-12-26T00:34:44.388Z,11.37
2022-12-26T00:37:11.130Z,11.43
2022-12-26T00:39:37.831Z,11.43
2022-12-26T00:42:04.648Z,11.32
2022-12-26T00:44:31.380Z,11.28
2022-12-26T00:46:58.184Z,11.31
2022-12-26T00:49:25.141Z,11.32
2022-12-26T00:51:51.859Z,11.24
2022-12-26T00:54:18.588Z,11.32
2022-12-26T00:56:45.294Z,11.27
2022-12-26T00:59:12.759Z,11.29
2022-12-26T01:01:39.721Z,11.29
2022-12-26T01:04:06.723Z,11.31
2022-12-26T01:06:33.757Z,11.36
2022-12-26T01:09:00.474Z,11.28
2022-12-26T01:11:42.484Z,11.36
2022-12-26T01:14:17.381Z,11.38
2022-12-26T01:16:45.955Z,11.33
2022-12-26T01:19:13.915Z,11.40
2022-12-26T01:21:41.340Z,11.32
2022-12-26T01:24:08.196Z,11.36
2022-12-26T01:26:34.898Z,11.29
2022-12-26T01:29:01.765Z,11.32
2022-12-26T01:31:28.449Z,11.31
2022-12-26T01:33:55.321Z,11.31
2022-12-26T01:36:22.038Z,11.41
2022-12-26T01:38:48.715Z,11.34
2022-12-26T01:41:20.401Z,11.44
2022-12-26T01:43:59.280Z,11.36
2022-12-26T01:46:38.811Z,11.45
2022-12-26T01:49:36.068Z,11.38
2022-12-26T01:52:33.607Z,11.39
2022-12-26T01:55:00.944Z,11.40
2022-12-26T01:57:32.309Z,11.43
2022-12-26T02:00:01.846Z,11.40
2022-12-26T02:02:30.190Z,11.47
2022-12-26T02:05:16.778Z,11.48
2022-12-26T02:07:45.847Z,11.45
2022-12-26T02:10:20.878Z,11.48
2022-12-26T02:12:48.768Z,11.44
2022-12-26T02:15:17.919Z,11.44
2022-12-26T02:17:45.050Z,11.56
2022-12-26T02:20:22.174Z,11.52
2022-12-26T02:23:29.732Z,11.49
2022-12-26T02:26:22.867Z,11.55
2022-12-26T02:29:26.554Z,11.52
2022-12-26T02:32:07.710Z,11.55
2022-12-26T02:34:53.930Z,11.64
2022-12-26T02:37:32.417Z,11.64
2022-12-26T02:40:36.445Z,11.66
2022-12-26T02:43:23.396Z,11.61
2022-12-26T02:46:51.824Z,11.63
2022-12-26T02:50:00.780Z,11.64
2022-12-26T02:52:52.735Z,11.60
2022-12-26T02:55:41.119Z,11.56
2022-12-26T02:58:42.678Z,11.60
2022-12-26T03:01:36.463Z,11.57
2022-12-26T03:04:23.272Z,11.57
2022-12-26T03:07:13.523Z,11.62
2022-12-26T03:10:00.821Z,11.63
2022-12-26T03:13:03.399Z,11.57
2022-12-26T03:15:55.172Z,11.59
2022-12-26T03:18:58.916Z,11.70
2022-12-26T03:21:10.648Z,11.67
2022-12-26T03:23:39.887Z,11.69
2022-12-26T03:26:28.302Z,11.71
2022-12-26T03:29:18.801Z,11.77
2022-12-26T03:31:46.046Z,11.80
2022-12-26T03:34:18.759Z,11.79
2022-12-26T03:37:24.635Z,11.83
2022-12-26T03:40:45.349Z,11.80
2022-12-26T03:44:02.190Z,11.80
2022-12-26T03:47:05.481Z,11.82
2022-12-26T03:49:54.545Z,11.82
2022-12-26T03:52:45.985Z,11.85
2022-12-26T03:55:36.724Z,11.79
2022-12-26T03:58:38.315Z,11.78
2022-12-26T04:01:27.938Z,11.75
2022-12-26T04:04:15.467Z,11.74
2022-12-26T04:07:07.864Z,11.71
2022-12-26T04:09:58.528Z,11.77
2022-12-26T04:12:44.700Z,11.78
2022-12-26T04:15:56.468Z,11.80
2022-12-26T04:18:47.512Z,11.77
2022-12-26T04:21:51.266Z,11.77
2022-12-26T04:24:42.156Z,11.82
2022-12-26T04:27:31.471Z,11.84
2022-12-26T04:30:16.701Z,11.83
2022-12-26T04:33:04.734Z,11.80
2022-12-26T04:35:53.712Z,11.76
2022-12-26T04:38:43.016Z,11.79
2022-12-26T04:41:29.746Z,11.74
2022-12-26T04:44:07.134Z,11.66
2022-12-26T04:46:36.042Z,11.78
2022-12-26T04:49:29.592Z,11.76
2022-12-26T04:51:57.469Z,11.65
2022-12-26T04:54:25.026Z,11.68
2022-12-26T04:56:51.804Z,11.75
2022-12-26T04:59:19.169Z,11.80
2022-12-26T05:02:04.331Z,11.76
2022-12-26T05:04:50.003Z,11.68
2022-12-26T05:07:41.050Z,11.65
2022-12-26T05:10:13.790Z,11.66
2022-12-26T05:12:40.856Z,11.60
2022-12-26T05:15:08.391Z,11.62
2022-12-26T05:17:53.779Z,11.65
2022-12-26T05:20:49.912Z,11.64
2022-12-26T05:23:44.955Z,11.60
2022-12-26T05:26:34.934Z,11.59
2022-12-26T05:29:04.029Z,11.58
2022-12-26T05:31:35.468Z,11.52
2022-12-26T05:34:07.249Z,11.49
2022-12-26T05:36:38.107Z,11.47
2022-12-26T05:39:06.046Z,11.45
2022-12-26T05:41:32.817Z,11.58
2022-12-26T05:43:59.561Z,11.60
2022-12-26T05:46:26.672Z,11.61
2022-12-26T05:48:53.496Z,11.65
2022-12-26T05:51:20.727Z,11.64
2022-12-26T05:53:48.682Z,11.59
2022-12-26T05:56:17.151Z,11.57
2022-12-26T05:58:44.392Z,11.54
2022-12-26T06:01:19.624Z,11.52
2022-12-26T06:03:48.919Z,11.49
2022-12-26T06:06:16.026Z,11.58
2022-12-26T06:08:42.985Z,11.53
2022-12-26T06:11:12.056Z,11.59
2022-12-26T06:13:39.900Z,11.63
2022-12-26T06:16:08.439Z,11.57
2022-12-26T06:18:35.629Z,11.51
2022-12-26T06:21:11.010Z,11.63
2022-12-26T06:23:38.354Z,11.58
2022-12-26T06:26:05.668Z,11.58
2022-12-26T06:28:33.772Z,11.50
2022-12-26T06:31:05.465Z,11.57
2022-12-26T06:33:32.444Z,11.52
2022-12-26T06:36:11.296Z,11.56
2022-12-26T06:38:38.147Z,11.51
2022-12-26T06:41:06.294Z,11.60
2022-12-26T06:43:33.263Z,11.66
2022-12-26T06:46:01.242Z,11.67
2022-12-26T06:48:28.655Z,11.48
2022-12-26T06:50:56.028Z,11.49
2022-12-26T06:53:26.129Z,11.54
2022-12-26T06:55:53.085Z,11.51
2022-12-26T06:58:19.867Z,11.50
2022-12-26T07:00:46.637Z,11.54
2022-12-26T07:03:13.654Z,11.52
2022-12-26T07:05:40.468Z,11.44
2022-12-26T07:08:07.425Z,11.56
2022-12-26T07:10:37.554Z,11.59
2022-12-26T07:13:04.395Z,11.66
2022-12-26T07:15:31.577Z,11.68
2022-12-26T07:17:58.372Z,11.52
2022-12-26T07:20:25.244Z,11.53
2022-12-26T07:22:52.089Z,11.46
2022-12-26T07:25:18.710Z,11.47
2022-12-26T07:27:45.466Z,11.52
2022-12-26T07:30:12.483Z,11.51
2022-12-26T07:32:39.295Z,11.48
2022-12-26T07:35:06.388Z,11.55
2022-12-26T07:37:33.144Z,11.56
2022-12-26T07:39:59.872Z,11.56
2022-12-26T07:42:26.718Z,11.51
2022-12-26T07:44:53.540Z,11.49
2022-12-26T07:47:20.343Z,11.53
2022-12-26T07:49:47.073Z,11.46
2022-12-26T07:52:13.827Z,11.57
2022-12-26T07:54:40.665Z,11.52
2022-12-26T07:57:46.031Z,11.47
2022-12-26T07:59:54.592Z,11.41
2022-12-26T08:02:21.655Z,11.37
2022-12-26T08:04:48.753Z,11.42
2022-12-26T08:07:15.542Z,11.38
2022-12-26T08:09:44.959Z,11.39
2022-12-26T08:12:13.183Z,11.32
2022-12-26T08:14:40.895Z,11.28
2022-12-26T08:17:08.309Z,11.40
2022-12-26T08:19:35.114Z,11.37
2022-12-26T08:22:01.962Z,11.37
2022-12-26T08:24:28.710Z,11.33
2022-12-26T08:26:55.454Z,11.31
2022-12-26T08:29:22.404Z,11.28
2022-12-26T08:31:49.143Z,11.29
2022-12-26T08:34:15.895Z,11.29
2022-12-26T08:36:42.636Z,11.33
2022-12-26T08:39:09.637Z,11.30
2022-12-26T08:41:36.350Z,11.27
2022-12-26T08:44:26.324Z,11.32
2022-12-26T08:46:49.890Z,11.32
2022-12-26T08:49:16.777Z,11.39
2022-12-26T08:51:43.431Z,11.44
2022-12-26T08:54:10.297Z,11.46
2022-12-26T08:56:37.095Z,11.47
2022-12-26T08:59:03.834Z,11.52
2022-12-26T09:01:31.616Z,11.49
2022-12-26T09:04:02.303Z,11.53
2022-12-26T09:06:30.012Z,11.50
2022-12-26T09:08:56.722Z,11.47
2022-12-26T09:11:27.824Z,11.46
2022-12-26T09:13:56.406Z,11.29
2022-12-26T09:16:25.584Z,11.00
2022-12-26T09:18:59.006Z,10.59
2022-12-26T09:21:26.152Z,10.35
2022-12-26T09:24:00.348Z,10.34
2022-12-26T09:26:28.579Z,10.31
2022-12-26T09:28:55.995Z,10.34
2022-12-26T09:31:29.025Z,10.30
2022-12-26T09:33:55.856Z,10.36
2022-12-26T09:36:25.777Z,10.36
2022-12-26T09:38:54.912Z,10.36
2022-12-26T09:41:57.019Z,10.39
2022-12-26T09:45:17.716Z,10.26
2022-12-26T09:48:00.861Z,10.32
2022-12-26T09:50:30.517Z,10.39
2022-12-26T09:53:18.610Z,10.43
2022-12-26T09:55:52.561Z,10.46
2022-12-26T09:58:31.817Z,10.45
2022-12-26T10:01:27.191Z,10.43
2022-12-26T10:03:58.304Z,10.34
2022-12-26T10:06:31.475Z,10.22
2022-12-26T10:09:09.349Z,10.23
2022-12-26T10:12:02.332Z,10.29
2022-12-26T10:14:51.803Z,10.18
2022-12-26T10:17:28.459Z,10.11
2022-12-26T10:20:04.425Z,10.13
2022-12-26T10:23:02.558Z,10.03
2022-12-26T10:25:49.055Z,10.08
2022-12-26T10:28:39.316Z,9.97
2022-12-26T10:31:11.715Z,10.09
2022-12-26T10:33:53.241Z,10.02
2022-12-26T10:36:42.072Z,9.99
2022-12-26T10:39:18.451Z,10.03
2022-12-26T10:41:51.599Z,10.09
2022-12-26T10:44:21.353Z,10.09
2022-12-26T10:47:14.534Z,10.10
2022-12-26T10:49:43.428Z,10.16
2022-12-26T10:52:10.768Z,10.13
2022-12-26T10:54:38.478Z,10.13
2022-12-26T10:57:06.233Z,10.16
2022-12-26T10:59:40.735Z,10.13
2022-12-26T11:02:33.890Z,10.21
2022-12-26T11:05:22.086Z,10.35
2022-12-26T11:07:54.104Z,10.43
2022-12-26T11:10:24.683Z,10.44
2022-12-26T11:13:02.049Z,10.44
2022-12-26T11:15:35.246Z,10.44
2022-12-26T11:18:20.858Z,10.45
2022-12-26T11:20:48.037Z,10.48
2022-12-26T11:23:31.813Z,10.50
2022-12-26T11:26:00.944Z,10.49
2022-12-26T11:28:36.325Z,10.57
2022-12-26T11:31:07.870Z,10.63
2022-12-26T11:33:41.573Z,10.68
2022-12-26T11:36:12.420Z,10.69
2022-12-26T11:39:05.099Z,10.68
2022-12-26T11:41:40.296Z,10.68
2022-12-26T11:44:11.588Z,10.72
2022-12-26T11:47:13.255Z,10.73
2022-12-26T11:49:46.354Z,10.79
2022-12-26T11:52:38.197Z,10.77
2022-12-26T11:55:51.176Z,10.79
2022-12-26T11:58:20.691Z,10.87
2022-12-26T12:01:10.815Z,10.84
2022-12-26T12:03:48.595Z,10.91
2022-12-26T12:06:44.259Z,10.90
2022-12-26T12:09:46.601Z,10.90
2022-12-26T12:12:31.483Z,10.86
2022-12-26T12:15:16.648Z,10.88
2022-12-26T12:17:56.524Z,10.94
2022-12-26T12:20:51.863Z,10.97
2022-12-26T12:24:00.530Z,11.01
2022-12-26T12:26:47.386Z,11.05
2022-12-26T12:29:41.999Z,11.09
2022-12-26T12:32:23.314Z,11.11
2022-12-26T12:35:15.436Z,11.12
2022-12-26T12:37:54.673Z,11.15
2022-12-26T12:40:38.339Z,11.18
2022-12-26T12:43:37.512Z,11.20
2022-12-26T12:46:19.693Z,11.33
2022-12-26T12:49:18.753Z,11.26
2022-12-26T12:52:13.293Z,11.34
2022-12-26T12:55:03.995Z,11.30
2022-12-26T12:57:52.489Z,11.43
2022-12-26T13:00:24.659Z,11.42
2022-12-26T13:03:10.900Z,11.59
2022-12-26T13:06:09.981Z,11.56
2022-12-26T13:08:45.495Z,11.58
2022-12-26T13:11:26.198Z,11.58
2022-12-26T13:13:57.423Z,11.57
2022-12-26T13:16:34.063Z,11.52
2022-12-26T13:19:04.397Z,11.63
2022-12-26T13:21:35.309Z,11.63
2022-12-26T13:24:25.292Z,11.61
2022-12-26T13:26:58.358Z,11.49
2022-12-26T13:29:46.767Z,11.46
2022-12-26T13:32:18.088Z,11.48
2022-12-26T13:34:46.229Z,11.49
2022-12-26T13:37:55.891Z,11.48
2022-12-26T13:40:26.808Z,11.47
2022-12-26T13:43:17.295Z,11.50
2022-12-26T13:45:50.276Z,11.45
2022-12-26T13:48:32.727Z,11.41
2022-12-26T13:51:01.248Z,11.43
2022-12-26T13:53:33.475Z,11.33
2022-12-26T13:56:45.677Z,11.41
2022-12-26T13:59:54.008Z,11.41
2022-12-26T14:10:11.202Z,11.40
2022-12-26T14:12:50.315Z,11.25
2022-12-26T14:15:49.061Z,11.28
2022-12-26T14:18:56.997Z,11.29
2022-12-26T14:21:54.537Z,11.28
2022-12-26T14:24:37.635Z,11.23
2022-12-26T14:27:34.063Z,11.22
2022-12-26T14:30:23.353Z,11.18
2022-12-26T14:33:11.849Z,11.24
2022-12-26T14:36:22.046Z,11.25
2022-12-26T14:39:30.114Z,11.22
2022-12-26T14:42:27.727Z,11.16
2022-12-26T14:44:56.908Z,11.06
2022-12-26T14:47:48.244Z,11.08
2022-12-26T14:50:42.671Z,11.05
2022-12-26T14:53:30.564Z,11.01
2022-12-26T14:56:10.696Z,10.92
2022-12-26T14:59:18.835Z,10.99
2022-12-26T15:01:48.939Z,10.94
2022-12-26T15:04:43.066Z,11.00
2022-12-26T15:08:02.693Z,10.98
2022-12-26T15:11:24.963Z,10.96
2022-12-26T15:14:43.715Z,10.96
2022-12-26T15:17:34.838Z,10.89
2022-12-26T15:20:44.866Z,10.90
2022-12-26T15:23:33.653Z,11.00
2022-12-26T15:26:39.172Z,10.89
2022-12-26T15:29:40.663Z,10.93
2022-12-26T15:32:39.770Z,10.85
2022-12-26T15:35:32.296Z,10.89
2022-12-26T15:38:39.222Z,10.96
2022-12-26T15:41:24.128Z,10.90
2022-12-26T15:44:21.134Z,10.89
2022-12-26T15:47:02.969Z,10.86
2022-12-26T16:00:00.900Z,10.81
2022-12-26T16:02:32.348Z,10.72
2022-12-26T16:05:28.381Z,10.76
2022-12-26T16:08:09.997Z,10.63
2022-12-26T16:10:37.772Z,10.56
2022-12-26T16:13:24.882Z,10.62
2022-12-26T16:15:56.668Z,10.54
2022-12-26T16:18:27.837Z,10.50
2022-12-26T16:21:16.397Z,10.45
2022-12-26T16:23:44.435Z,10.39
2022-12-26T16:26:19.216Z,10.35
2022-12-26T16:28:46.119Z,10.44
2022-12-26T16:31:20.197Z,10.42
2022-12-26T16:33:47.588Z,10.43
2022-12-26T16:36:28.329Z,10.46
2022-12-26T16:38:55.655Z,10.39
2022-12-26T16:41:28.021Z,10.46
2022-12-26T16:43:56.575Z,10.38
2022-12-26T16:46:26.671Z,10.40
2022-12-26T16:48:58.983Z,10.37
2022-12-26T16:51:52.929Z,10.29
2022-12-26T16:54:37.855Z,10.00
2022-12-26T16:57:16.784Z,9.75
2022-12-26T16:59:51.162Z,9.44
2022-12-26T17:02:22.019Z,9.39
2022-12-26T17:05:04.707Z,9.27
2022-12-26T17:07:31.974Z,9.21
2022-12-26T17:10:00.365Z,9.23
2022-12-26T17:12:38.120Z,9.06
2022-12-26T17:15:06.154Z,8.99
2022-12-26T17:17:38.225Z,9.15
2022-12-26T17:20:43.796Z,9.03
2022-12-26T17:23:33.531Z,9.03
2022-12-26T17:26:26.174Z,9.12
2022-12-26T17:28:53.199Z,9.02
2022-12-26T17:31:28.575Z,9.06
2022-12-26T17:33:59.193Z,9.21
2022-12-26T17:39:26.296Z,9.10
2022-12-26T17:41:56.052Z,9.03
2022-12-26T17:44:45.525Z,8.88
2022-12-26T17:47:22.732Z,9.03
2022-12-26T17:49:50.915Z,9.01
2022-12-26T17:52:20.615Z,9.06
2022-12-26T17:54:49.364Z,9.10
2022-12-26T17:57:22.487Z,9.11
2022-12-26T17:59:50.035Z,9.03
2022-12-26T18:02:16.788Z,8.95
2022-12-26T18:04:44.175Z,9.01
2022-12-26T18:07:23.208Z,9.04
2022-12-26T18:09:54.020Z,8.92
2022-12-26T18:12:20.703Z,9.06
2022-12-26T18:14:48.496Z,9.09
2022-12-26T18:17:18.423Z,9.08
2022-12-26T18:19:46.388Z,9.09
2022-12-26T18:22:15.428Z,9.07
2022-12-26T18:24:42.520Z,9.08
2022-12-26T18:27:27.798Z,9.04
2022-12-26T18:29:54.589Z,9.05
2022-12-26T18:32:29.836Z,9.04
2022-12-26T18:34:57.182Z,9.05
2022-12-26T18:37:26.472Z,9.03
2022-12-26T18:39:53.773Z,9.00
2022-12-26T18:42:20.549Z,8.94
2022-12-26T18:44:47.633Z,8.98
2022-12-26T18:47:16.632Z,8.90
2022-12-26T18:49:43.834Z,8.91
2022-12-26T18:52:11.013Z,8.86
2022-12-26T18:54:44.581Z,8.86
2022-12-26T18:57:18.568Z,8.99
2022-12-26T18:59:46.396Z,8.88
2022-12-26T19:02:18.792Z,8.97
2022-12-26T19:04:48.810Z,8.87
2022-12-26T19:07:17.626Z,9.13
2022-12-26T19:09:45.760Z,8.95
2022-12-26T19:12:13.147Z,8.89
2022-12-26T19:14:40.461Z,8.88
2022-12-26T19:17:07.147Z,9.03
2022-12-26T19:19:37.333Z,8.94
2022-12-26T19:22:04.021Z,8.54
2022-12-26T19:24:30.630Z,8.47
2022-12-26T19:26:57.330Z,8.47
2022-12-26T19:29:24.304Z,8.28
2022-12-26T19:31:51.057Z,8.40
2022-12-26T19:34:17.967Z,8.28
2022-12-26T19:36:46.758Z,8.17
2022-12-26T19:39:13.524Z,8.16
2022-12-26T19:41:40.493Z,8.12
2022-12-26T19:44:07.185Z,7.96
2022-12-26T19:46:34.067Z,7.81
2022-12-26T19:49:01.423Z,7.89
2022-12-26T19:51:28.384Z,7.82
2022-12-26T19:53:59.860Z,7.68
2022-12-26T19:56:27.567Z,7.67
2022-12-26T19:58:56.854Z,7.66
2022-12-26T20:01:26.415Z,7.58
2022-12-26T20:03:57.927Z,7.58
2022-12-26T20:06:26.633Z,7.53
2022-12-26T20:08:57.037Z,7.52
2022-12-26T20:11:27.850Z,7.50
2022-12-26T20:13:54.729Z,7.61
2022-12-26T20:17:03.281Z,7.60
2022-12-26T20:19:10.909Z,7.67
2022-12-26T20:21:38.722Z,7.57
2022-12-26T20:24:06.168Z,7.56
2022-12-26T20:26:33.476Z,7.59
2022-12-26T20:29:02.095Z,7.60
2022-12-26T20:31:29.676Z,7.44
2022-12-26T20:34:00.960Z,7.45
2022-12-26T20:36:29.667Z,7.58
2022-12-26T20:38:58.717Z,7.52
2022-12-26T20:41:26.452Z,7.30
2022-12-26T20:43:53.171Z,7.25
2022-12-26T20:46:22.563Z,7.28
2022-12-26T20:48:49.945Z,7.28
2022-12-26T20:51:20.096Z,7.37
2022-12-26T20:53:46.977Z,7.11
2022-12-26T20:56:13.828Z,7.22
2022-12-26T20:58:40.697Z,7.22
2022-12-26T21:01:11.204Z,7.11
2022-12-26T21:03:38.990Z,7.24
2022-12-26T21:06:14.235Z,7.11
2022-12-26T21:08:42.583Z,7.13
2022-12-26T21:11:15.452Z,7.11
2022-12-26T21:13:43.144Z,7.18
2022-12-26T21:16:25.154Z,7.22
2022-12-26T21:18:52.068Z,7.15
2022-12-26T21:21:27.311Z,7.17
2022-12-26T21:23:59.780Z,7.14
2022-12-26T21:26:27.141Z,7.16
2022-12-26T21:28:58.601Z,7.09
2022-12-26T21:31:25.886Z,7.02
2022-12-26T21:33:56.329Z,7.02
2022-12-26T21:36:24.083Z,7.04
2022-12-26T21:38:51.195Z,6.76
2022-12-26T21:41:17.830Z,6.73
2022-12-26T21:43:44.613Z,6.62
2022-12-26T21:46:14.246Z,6.70
2022-12-26T21:48:50.406Z,6.59
2022-12-26T21:51:18.673Z,6.44
2022-12-26T21:53:46.291Z,6.41
2022-12-26T21:56:14.802Z,6.27
2022-12-26T21:59:01.822Z,6.23
2022-12-26T22:01:29.487Z,6.23
2022-12-26T22:04:14.995Z,5.93
2022-12-26T22:06:42.956Z,6.09
2022-12-26T22:09:18.676Z,5.94
2022-12-26T22:12:04.241Z,5.87
2022-12-26T22:14:31.422Z,5.80
2022-12-26T22:16:58.100Z,5.89
2022-12-26T22:19:25.291Z,5.73
2022-12-26T22:21:52.960Z,5.75
2022-12-26T22:24:21.635Z,5.83
2022-12-26T22:26:48.895Z,5.65
2022-12-26T22:29:15.865Z,5.70
2022-12-26T22:31:42.567Z,5.63
2022-12-26T22:34:14.450Z,5.72
2022-12-26T22:36:41.851Z,5.68
2022-12-26T22:39:12.200Z,5.54
2022-12-26T22:41:39.257Z,5.39
2022-12-26T22:44:06.645Z,5.23
2022-12-26T22:46:33.490Z,5.35
2022-12-26T22:49:00.290Z,5.36
2022-12-26T22:51:27.762Z,5.18
2022-12-26T22:53:59.975Z,5.30
2022-12-26T22:56:27.457Z,5.36
2022-12-26T22:58:55.900Z,5.22
2022-12-26T23:01:23.817Z,5.35
2022-12-26T23:03:50.551Z,5.36
2022-12-26T23:06:28.676Z,5.30
2022-12-26T23:08:57.518Z,5.21
2022-12-26T23:11:32.157Z,5.18
2022-12-26T23:14:01.887Z,5.04
2022-12-26T23:16:34.614Z,5.00
2022-12-26T23:19:27.067Z,4.81
2022-12-26T23:21:54.094Z,4.77
2022-12-26T23:24:24.065Z,4.82
2022-12-26T23:27:17.607Z,4.83
2022-12-26T23:30:03.145Z,4.65
2022-12-26T23:32:29.852Z,4.63
2022-12-26T23:34:56.490Z,4.42
2022-12-26T23:37:23.838Z,4.33
2022-12-26T23:39:50.466Z,4.11
2022-12-26T23:42:17.230Z,4.12
2022-12-26T23:44:44.113Z,4.03
2022-12-26T23:47:11.284Z,3.90
2022-12-26T23:49:37.918Z,3.81
2022-12-26T23:52:04.981Z,3.80
2022-12-26T23:54:31.789Z,3.70
2022-12-26T23:56:58.524Z,3.67
2022-12-26T23:59:25.251Z,3.69
